sensor_id;sensor_type;location;lat;lon;timestamp;temperature;humidity
48416;DHT22;34227;51.840;4.146;2022-09-20T00:00:31;13.80;90.80
48416;DHT22;34227;51.840;4.146;2022-09-20T00:02:57;13.80;90.90
48416;DHT22;34227;51.840;4.146;2022-09-20T00:05:23;13.70;91.00
48416;DHT22;34227;51.840;4.146;2022-09-20T00:07:48;13.70;90.90
48416;DHT22;34227;51.840;4.146;2022-09-20T00:10:14;13.70;90.90
48416;DHT22;34227;51.840;4.146;2022-09-20T00:12:39;13.70;90.90
48416;DHT22;34227;51.840;4.146;2022-09-20T00:15:05;13.70;90.90
48416;DHT22;34227;51.840;4.146;2022-09-20T00:17:31;13.60;90.90
48416;DHT22;34227;51.840;4.146;2022-09-20T00:19:56;13.60;91.10
48416;DHT22;34227;51.840;4.146;2022-09-20T00:22:22;13.60;90.90
48416;DHT22;34227;51.840;4.146;2022-09-20T00:24:47;13.60;90.80
48416;DHT22;34227;51.840;4.146;2022-09-20T00:27:13;13.60;90.90
48416;DHT22;34227;51.840;4.146;2022-09-20T00:29:38;13.50;90.90
48416;DHT22;34227;51.840;4.146;2022-09-20T00:32:05;13.50;90.90
48416;DHT22;34227;51.840;4.146;2022-09-20T00:34:30;13.50;90.90
48416;DHT22;34227;51.840;4.146;2022-09-20T00:37:14;13.50;90.90
48416;DHT22;34227;51.840;4.146;2022-09-20T00:39:40;13.40;90.90
48416;DHT22;34227;51.840;4.146;2022-09-20T00:42:05;13.40;91.00
48416;DHT22;34227;51.840;4.146;2022-09-20T00:47:21;13.40;91.00
48416;DHT22;34227;51.840;4.146;2022-09-20T00:49:48;13.40;91.00
48416;DHT22;34227;51.840;4.146;2022-09-20T00:52:14;13.30;91.10
48416;DHT22;34227;51.840;4.146;2022-09-20T00:54:39;13.30;91.00
48416;DHT22;34227;51.840;4.146;2022-09-20T00:57:05;13.30;91.10
48416;DHT22;34227;51.840;4.146;2022-09-20T00:59:32;13.30;91.10
48416;DHT22;34227;51.840;4.146;2022-09-20T01:04:25;13.20;91.10
48416;DHT22;34227;51.840;4.146;2022-09-20T01:06:52;13.20;91.10
48416;DHT22;34227;51.840;4.146;2022-09-20T01:09:18;13.20;91.10
48416;DHT22;34227;51.840;4.146;2022-09-20T01:11:45;13.20;91.00
48416;DHT22;34227;51.840;4.146;2022-09-20T01:14:12;13.10;91.10
48416;DHT22;34227;51.840;4.146;2022-09-20T01:16:38;13.10;91.10
48416;DHT22;34227;51.840;4.146;2022-09-20T01:19:07;13.10;91.20
48416;DHT22;34227;51.840;4.146;2022-09-20T01:21:34;13.10;91.10
48416;DHT22;34227;51.840;4.146;2022-09-20T01:24:05;13.10;91.20
48416;DHT22;34227;51.840;4.146;2022-09-20T01:31:52;13.10;91.20
48416;DHT22;34227;51.840;4.146;2022-09-20T01:34:42;13.10;91.20
48416;DHT22;34227;51.840;4.146;2022-09-20T01:37:16;13.00;91.10
48416;DHT22;34227;51.840;4.146;2022-09-20T01:42:16;13.00;91.10
48416;DHT22;34227;51.840;4.146;2022-09-20T01:45:21;13.00;91.40
48416;DHT22;34227;51.840;4.146;2022-09-20T01:47:44;13.00;91.10
48416;DHT22;34227;51.840;4.146;2022-09-20T01:50:20;13.00;91.10
48416;DHT22;34227;51.840;4.146;2022-09-20T01:52:53;13.00;91.10
48416;DHT22;34227;51.840;4.146;2022-09-20T02:03:33;12.90;91.20
48416;DHT22;34227;51.840;4.146;2022-09-20T02:11:07;12.90;91.20
48416;DHT22;34227;51.840;4.146;2022-09-20T02:13:42;12.90;91.30
48416;DHT22;34227;51.840;4.146;2022-09-20T02:24:22;12.80;91.30
48416;DHT22;34227;51.840;4.146;2022-09-20T02:40:25;12.70;91.30
48416;DHT22;34227;51.840;4.146;2022-09-20T02:45:38;12.70;91.40
48416;DHT22;34227;51.840;4.146;2022-09-20T02:48:06;12.70;91.40
48416;DHT22;34227;51.840;4.146;2022-09-20T02:50:44;12.60;91.30
48416;DHT22;34227;51.840;4.146;2022-09-20T03:00:53;12.60;91.40
48416;DHT22;34227;51.840;4.146;2022-09-20T03:03:22;12.60;91.40
48416;DHT22;34227;51.840;4.146;2022-09-20T03:11:11;12.60;91.30
48416;DHT22;34227;51.840;4.146;2022-09-20T03:14:01;12.70;91.30
48416;DHT22;34227;51.840;4.146;2022-09-20T03:27:15;12.60;91.40
48416;DHT22;34227;51.840;4.146;2022-09-20T03:32:24;12.60;91.20
48416;DHT22;34227;51.840;4.146;2022-09-20T03:42:17;12.60;91.10
48416;DHT22;34227;51.840;4.146;2022-09-20T03:47:36;12.60;91.00
48416;DHT22;34227;51.840;4.146;2022-09-20T03:55:44;12.60;91.40
48416;DHT22;34227;51.840;4.146;2022-09-20T04:08:47;12.70;91.50
48416;DHT22;34227;51.840;4.146;2022-09-20T04:13:49;12.70;91.20
48416;DHT22;34227;51.840;4.146;2022-09-20T04:21:31;12.70;91.10
48416;DHT22;34227;51.840;4.146;2022-09-20T04:26:28;12.70;91.10
48416;DHT22;34227;51.840;4.146;2022-09-20T04:31:36;12.70;91.00
48416;DHT22;34227;51.840;4.146;2022-09-20T04:34:09;12.70;90.90
48416;DHT22;34227;51.840;4.146;2022-09-20T04:39:33;12.70;91.00
48416;DHT22;34227;51.840;4.146;2022-09-20T04:47:03;12.70;90.90
48416;DHT22;34227;51.840;4.146;2022-09-20T04:55:01;12.70;90.80
48416;DHT22;34227;51.840;4.146;2022-09-20T04:57:39;12.70;90.80
48416;DHT22;34227;51.840;4.146;2022-09-20T05:00:11;12.70;90.90
48416;DHT22;34227;51.840;4.146;2022-09-20T05:13:18;12.70;90.90
48416;DHT22;34227;51.840;4.146;2022-09-20T05:16:03;12.70;90.90
48416;DHT22;34227;51.840;4.146;2022-09-20T05:23:43;12.70;91.00
48416;DHT22;34227;51.840;4.146;2022-09-20T05:26:17;12.60;90.90
48416;DHT22;34227;51.840;4.146;2022-09-20T05:38:53;12.60;91.00
48416;DHT22;34227;51.840;4.146;2022-09-20T05:41:44;12.60;91.00
48416;DHT22;34227;51.840;4.146;2022-09-20T05:44:38;12.60;90.90
48416;DHT22;34227;51.840;4.146;2022-09-20T05:52:43;12.60;90.90
48416;DHT22;34227;51.840;4.146;2022-09-20T06:02:40;12.60;91.00
48416;DHT22;34227;51.840;4.146;2022-09-20T06:05:14;12.60;91.00
48416;DHT22;34227;51.840;4.146;2022-09-20T06:10:27;12.70;90.90
48416;DHT22;34227;51.840;4.146;2022-09-20T06:13:59;12.70;90.80
48416;DHT22;34227;51.840;4.146;2022-09-20T06:15:56;12.70;90.80
48416;DHT22;34227;51.840;4.146;2022-09-20T06:20:57;12.70;90.60
48416;DHT22;34227;51.840;4.146;2022-09-20T06:23:24;12.80;90.60
48416;DHT22;34227;51.840;4.146;2022-09-20T06:26:06;12.80;90.60
48416;DHT22;34227;51.840;4.146;2022-09-20T06:28:55;12.80;90.60
48416;DHT22;34227;51.840;4.146;2022-09-20T06:31:19;12.80;90.50
48416;DHT22;34227;51.840;4.146;2022-09-20T06:36:27;12.90;90.70
48416;DHT22;34227;51.840;4.146;2022-09-20T06:42:03;13.00;91.00
48416;DHT22;34227;51.840;4.146;2022-09-20T06:44:28;13.00;90.80
48416;DHT22;34227;51.840;4.146;2022-09-20T06:46:54;13.10;91.20
48416;DHT22;34227;51.840;4.146;2022-09-20T06:49:20;13.10;91.60
48416;DHT22;34227;51.840;4.146;2022-09-20T06:51:46;13.10;91.20
48416;DHT22;34227;51.840;4.146;2022-09-20T06:54:15;13.20;91.10
48416;DHT22;34227;51.840;4.146;2022-09-20T06:56:41;13.20;91.10
48416;DHT22;34227;51.840;4.146;2022-09-20T06:59:08;13.30;91.00
48416;DHT22;34227;51.840;4.146;2022-09-20T07:01:35;13.30;91.00
48416;DHT22;34227;51.840;4.146;2022-09-20T07:04:02;13.30;90.90
48416;DHT22;34227;51.840;4.146;2022-09-20T07:06:43;13.30;90.80
48416;DHT22;34227;51.840;4.146;2022-09-20T07:09:08;13.40;91.20
48416;DHT22;34227;51.840;4.146;2022-09-20T07:11:34;13.40;91.00
48416;DHT22;34227;51.840;4.146;2022-09-20T07:14:00;13.40;90.90
48416;DHT22;34227;51.840;4.146;2022-09-20T07:16:26;13.40;90.70
48416;DHT22;34227;51.840;4.146;2022-09-20T07:18:51;13.40;90.70
48416;DHT22;34227;51.840;4.146;2022-09-20T07:21:18;13.50;90.60
48416;DHT22;34227;51.840;4.146;2022-09-20T07:23:43;13.50;90.60
48416;DHT22;34227;51.840;4.146;2022-09-20T07:26:17;13.50;90.50
48416;DHT22;34227;51.840;4.146;2022-09-20T07:28:43;13.50;90.40
48416;DHT22;34227;51.840;4.146;2022-09-20T07:31:09;13.50;90.40
48416;DHT22;34227;51.840;4.146;2022-09-20T07:33:38;13.50;90.40
48416;DHT22;34227;51.840;4.146;2022-09-20T07:36:03;13.50;90.30
48416;DHT22;34227;51.840;4.146;2022-09-20T07:38:29;13.50;90.30
48416;DHT22;34227;51.840;4.146;2022-09-20T07:40:58;13.50;90.30
48416;DHT22;34227;51.840;4.146;2022-09-20T07:43:25;13.60;90.30
48416;DHT22;34227;51.840;4.146;2022-09-20T07:45:51;13.60;90.30
48416;DHT22;34227;51.840;4.146;2022-09-20T07:48:22;13.60;90.40
48416;DHT22;34227;51.840;4.146;2022-09-20T07:50:53;13.60;90.50
48416;DHT22;34227;51.840;4.146;2022-09-20T07:53:19;13.60;90.60
48416;DHT22;34227;51.840;4.146;2022-09-20T07:58:40;13.70;90.70
48416;DHT22;34227;51.840;4.146;2022-09-20T08:01:07;13.70;90.70
48416;DHT22;34227;51.840;4.146;2022-09-20T08:03:39;13.70;90.70
48416;DHT22;34227;51.840;4.146;2022-09-20T08:06:08;13.80;90.90
48416;DHT22;34227;51.840;4.146;2022-09-20T08:08:34;13.90;91.90
48416;DHT22;34227;51.840;4.146;2022-09-20T08:11:10;14.10;92.80
48416;DHT22;34227;51.840;4.146;2022-09-20T08:13:41;14.50;93.60
48416;DHT22;34227;51.840;4.146;2022-09-20T08:16:08;15.00;93.90
48416;DHT22;34227;51.840;4.146;2022-09-20T08:18:34;15.50;94.00
48416;DHT22;34227;51.840;4.146;2022-09-20T08:21:04;16.10;93.60
48416;DHT22;34227;51.840;4.146;2022-09-20T08:23:36;16.70;93.40
48416;DHT22;34227;51.840;4.146;2022-09-20T08:26:03;17.30;92.70
48416;DHT22;34227;51.840;4.146;2022-09-20T08:28:30;17.80;91.80
48416;DHT22;34227;51.840;4.146;2022-09-20T08:33:27;17.70;92.30
48416;DHT22;34227;51.840;4.146;2022-09-20T08:35:53;18.20;91.00
48416;DHT22;34227;51.840;4.146;2022-09-20T08:38:19;18.50;90.00
48416;DHT22;34227;51.840;4.146;2022-09-20T08:40:45;18.60;88.60
48416;DHT22;34227;51.840;4.146;2022-09-20T08:43:14;18.70;87.70
48416;DHT22;34227;51.840;4.146;2022-09-20T08:45:40;18.80;87.40
48416;DHT22;34227;51.840;4.146;2022-09-20T08:48:06;18.80;87.50
48416;DHT22;34227;51.840;4.146;2022-09-20T08:50:35;18.80;87.40
48416;DHT22;34227;51.840;4.146;2022-09-20T08:53:01;18.90;87.20
48416;DHT22;34227;51.840;4.146;2022-09-20T08:55:29;19.00;86.80
48416;DHT22;34227;51.840;4.146;2022-09-20T08:58:00;19.10;86.80
48416;DHT22;34227;51.840;4.146;2022-09-20T09:00:32;19.10;86.60
48416;DHT22;34227;51.840;4.146;2022-09-20T09:03:02;19.30;86.30
48416;DHT22;34227;51.840;4.146;2022-09-20T09:05:32;19.40;86.10
48416;DHT22;34227;51.840;4.146;2022-09-20T09:07:59;19.40;85.60
48416;DHT22;34227;51.840;4.146;2022-09-20T09:10:35;19.40;85.60
48416;DHT22;34227;51.840;4.146;2022-09-20T09:13:05;19.40;85.60
48416;DHT22;34227;51.840;4.146;2022-09-20T09:15:32;19.40;85.60
48416;DHT22;34227;51.840;4.146;2022-09-20T09:17:59;19.40;85.40
48416;DHT22;34227;51.840;4.146;2022-09-20T09:20:25;19.50;85.80
48416;DHT22;34227;51.840;4.146;2022-09-20T09:22:57;19.50;85.20
48416;DHT22;34227;51.840;4.146;2022-09-20T09:25:42;19.60;85.50
48416;DHT22;34227;51.840;4.146;2022-09-20T09:30:37;19.60;85.50
48416;DHT22;34227;51.840;4.146;2022-09-20T09:35:51;19.50;85.20
48416;DHT22;34227;51.840;4.146;2022-09-20T09:38:19;19.50;85.40
48416;DHT22;34227;51.840;4.146;2022-09-20T09:40:53;19.40;85.20
48416;DHT22;34227;51.840;4.146;2022-09-20T09:43:24;19.40;85.30
48416;DHT22;34227;51.840;4.146;2022-09-20T09:45:53;19.30;85.00
48416;DHT22;34227;51.840;4.146;2022-09-20T09:48:22;19.30;84.90
48416;DHT22;34227;51.840;4.146;2022-09-20T09:50:47;19.30;84.60
48416;DHT22;34227;51.840;4.146;2022-09-20T09:58:05;19.20;83.70
48416;DHT22;34227;51.840;4.146;2022-09-20T10:00:34;19.20;83.40
48416;DHT22;34227;51.840;4.146;2022-09-20T10:11:01;19.10;81.90
48416;DHT22;34227;51.840;4.146;2022-09-20T10:23:55;19.00;81.50
48416;DHT22;34227;51.840;4.146;2022-09-20T10:36:31;19.00;81.70
48416;DHT22;34227;51.840;4.146;2022-09-20T10:39:09;18.90;81.90
48416;DHT22;34227;51.840;4.146;2022-09-20T10:41:45;18.90;82.00
48416;DHT22;34227;51.840;4.146;2022-09-20T10:47:15;18.80;82.60
48416;DHT22;34227;51.840;4.146;2022-09-20T10:52:44;18.70;82.60
48416;DHT22;34227;51.840;4.146;2022-09-20T10:58:38;18.60;82.50
48416;DHT22;34227;51.840;4.146;2022-09-20T11:07:15;18.70;82.60
48416;DHT22;34227;51.840;4.146;2022-09-20T11:09:09;18.70;82.70
48416;DHT22;34227;51.840;4.146;2022-09-20T11:11:41;18.70;82.70
48416;DHT22;34227;51.840;4.146;2022-09-20T11:14:11;18.70;82.70
48416;DHT22;34227;51.840;4.146;2022-09-20T11:19:20;18.80;82.60
48416;DHT22;34227;51.840;4.146;2022-09-20T11:21:52;18.80;83.00
48416;DHT22;34227;51.840;4.146;2022-09-20T11:26:48;18.90;82.30
48416;DHT22;34227;51.840;4.146;2022-09-20T11:29:25;18.90;82.10
48416;DHT22;34227;51.840;4.146;2022-09-20T11:31:54;19.00;81.90
48416;DHT22;34227;51.840;4.146;2022-09-20T11:34:29;19.00;81.60
48416;DHT22;34227;51.840;4.146;2022-09-20T11:36:59;19.00;81.40
48416;DHT22;34227;51.840;4.146;2022-09-20T11:42:30;19.00;80.90
48416;DHT22;34227;51.840;4.146;2022-09-20T11:45:05;19.00;80.60
48416;DHT22;34227;51.840;4.146;2022-09-20T11:47:41;18.90;80.40
48416;DHT22;34227;51.840;4.146;2022-09-20T11:57:58;18.80;80.10
48416;DHT22;34227;51.840;4.146;2022-09-20T12:00:28;18.80;80.20
48416;DHT22;34227;51.840;4.146;2022-09-20T12:02:55;18.80;80.20
48416;DHT22;34227;51.840;4.146;2022-09-20T12:05:30;18.80;80.20
48416;DHT22;34227;51.840;4.146;2022-09-20T12:08:02;18.80;80.40
48416;DHT22;34227;51.840;4.146;2022-09-20T12:11:00;18.80;80.30
48416;DHT22;34227;51.840;4.146;2022-09-20T12:13:35;18.80;80.40
48416;DHT22;34227;51.840;4.146;2022-09-20T12:16:02;18.80;80.40
48416;DHT22;34227;51.840;4.146;2022-09-20T12:18:29;18.80;81.10
48416;DHT22;34227;51.840;4.146;2022-09-20T12:20:58;18.80;79.80
48416;DHT22;34227;51.840;4.146;2022-09-20T12:26:08;18.80;79.60
48416;DHT22;34227;51.840;4.146;2022-09-20T12:36:28;18.80;79.40
48416;DHT22;34227;51.840;4.146;2022-09-20T12:39:04;18.80;79.30
48416;DHT22;34227;51.840;4.146;2022-09-20T12:41:46;18.80;79.20
48416;DHT22;34227;51.840;4.146;2022-09-20T12:49:38;18.60;79.00
48416;DHT22;34227;51.840;4.146;2022-09-20T13:00:46;18.40;78.50
48416;DHT22;34227;51.840;4.146;2022-09-20T13:11:12;18.30;78.90
48416;DHT22;34227;51.840;4.146;2022-09-20T13:13:48;18.20;79.00
48416;DHT22;34227;51.840;4.146;2022-09-20T13:19:04;18.10;79.10
48416;DHT22;34227;51.840;4.146;2022-09-20T13:21:31;18.10;79.20
48416;DHT22;34227;51.840;4.146;2022-09-20T13:23:57;18.00;79.40
48416;DHT22;34227;51.840;4.146;2022-09-20T13:26:34;17.90;79.00
48416;DHT22;34227;51.840;4.146;2022-09-20T13:29:03;17.90;78.90
48416;DHT22;34227;51.840;4.146;2022-09-20T13:31:31;17.90;79.30
48416;DHT22;34227;51.840;4.146;2022-09-20T13:34:17;17.80;79.30
48416;DHT22;34227;51.840;4.146;2022-09-20T13:36:43;17.80;79.40
48416;DHT22;34227;51.840;4.146;2022-09-20T13:39:19;17.70;79.20
48416;DHT22;34227;51.840;4.146;2022-09-20T13:41:46;17.70;79.30
48416;DHT22;34227;51.840;4.146;2022-09-20T13:44:15;17.70;79.00
48416;DHT22;34227;51.840;4.146;2022-09-20T13:46:44;17.70;79.20
48416;DHT22;34227;51.840;4.146;2022-09-20T13:51:35;17.60;78.90
48416;DHT22;34227;51.840;4.146;2022-09-20T13:54:23;17.50;78.80
48416;DHT22;34227;51.840;4.146;2022-09-20T13:56:49;17.50;78.90
48416;DHT22;34227;51.840;4.146;2022-09-20T13:59:18;17.50;79.00
48416;DHT22;34227;51.840;4.146;2022-09-20T14:01:47;17.40;78.80
48416;DHT22;34227;51.840;4.146;2022-09-20T14:04:14;17.40;78.90
48416;DHT22;34227;51.840;4.146;2022-09-20T14:06:41;17.30;78.80
48416;DHT22;34227;51.840;4.146;2022-09-20T14:09:07;17.30;78.90
48416;DHT22;34227;51.840;4.146;2022-09-20T14:11:33;17.30;78.80
48416;DHT22;34227;51.840;4.146;2022-09-20T14:14:01;17.20;78.80
48416;DHT22;34227;51.840;4.146;2022-09-20T14:16:32;17.30;78.80
48416;DHT22;34227;51.840;4.146;2022-09-20T14:18:58;17.20;78.60
48416;DHT22;34227;51.840;4.146;2022-09-20T14:21:25;17.20;78.70
48416;DHT22;34227;51.840;4.146;2022-09-20T14:23:52;17.20;78.50
48416;DHT22;34227;51.840;4.146;2022-09-20T14:28:43;17.10;78.30
48416;DHT22;34227;51.840;4.146;2022-09-20T14:31:13;17.10;78.40
48416;DHT22;34227;51.840;4.146;2022-09-20T14:33:39;17.10;78.40
48416;DHT22;34227;51.840;4.146;2022-09-20T14:36:11;17.10;78.50
48416;DHT22;34227;51.840;4.146;2022-09-20T14:38:37;17.00;78.40
48416;DHT22;34227;51.840;4.146;2022-09-20T14:41:02;17.00;78.40
48416;DHT22;34227;51.840;4.146;2022-09-20T14:43:29;17.00;78.70
48416;DHT22;34227;51.840;4.146;2022-09-20T14:45:59;17.00;78.70
48416;DHT22;34227;51.840;4.146;2022-09-20T14:48:30;17.00;78.60
48416;DHT22;34227;51.840;4.146;2022-09-20T14:53:44;16.90;78.50
48416;DHT22;34227;51.840;4.146;2022-09-20T14:56:11;16.90;78.70
48416;DHT22;34227;51.840;4.146;2022-09-20T15:01:24;16.80;78.80
48416;DHT22;34227;51.840;4.146;2022-09-20T15:03:50;16.80;79.00
48416;DHT22;34227;51.840;4.146;2022-09-20T15:06:16;16.80;78.60
48416;DHT22;34227;51.840;4.146;2022-09-20T15:08:42;16.80;78.80
48416;DHT22;34227;51.840;4.146;2022-09-20T15:11:11;16.80;78.90
48416;DHT22;34227;51.840;4.146;2022-09-20T15:13:38;16.80;78.90
48416;DHT22;34227;51.840;4.146;2022-09-20T15:16:04;16.70;79.10
48416;DHT22;34227;51.840;4.146;2022-09-20T15:18:31;16.70;78.90
48416;DHT22;34227;51.840;4.146;2022-09-20T15:20:58;16.70;78.90
48416;DHT22;34227;51.840;4.146;2022-09-20T15:23:25;16.70;79.10
48416;DHT22;34227;51.840;4.146;2022-09-20T15:25:51;16.60;79.00
48416;DHT22;34227;51.840;4.146;2022-09-20T15:28:17;16.60;79.30
48416;DHT22;34227;51.840;4.146;2022-09-20T15:30:46;16.60;79.40
48416;DHT22;34227;51.840;4.146;2022-09-20T15:33:13;16.60;79.50
48416;DHT22;34227;51.840;4.146;2022-09-20T15:35:39;16.50;79.50
48416;DHT22;34227;51.840;4.146;2022-09-20T15:38:05;16.50;79.40
48416;DHT22;34227;51.840;4.146;2022-09-20T15:40:33;16.50;79.60
48416;DHT22;34227;51.840;4.146;2022-09-20T15:42:59;16.50;79.70
48416;DHT22;34227;51.840;4.146;2022-09-20T15:45:25;16.40;79.70
48416;DHT22;34227;51.840;4.146;2022-09-20T15:47:52;16.40;79.60
48416;DHT22;34227;51.840;4.146;2022-09-20T15:50:19;16.40;79.70
48416;DHT22;34227;51.840;4.146;2022-09-20T15:52:47;16.40;79.80
48416;DHT22;34227;51.840;4.146;2022-09-20T15:55:14;16.30;79.50
48416;DHT22;34227;51.840;4.146;2022-09-20T15:57:40;16.30;79.80
48416;DHT22;34227;51.840;4.146;2022-09-20T16:00:06;16.30;79.60
48416;DHT22;34227;51.840;4.146;2022-09-20T16:02:32;16.30;79.70
48416;DHT22;34227;51.840;4.146;2022-09-20T16:04:57;16.30;79.80
48416;DHT22;34227;51.840;4.146;2022-09-20T16:07:24;16.20;79.90
48416;DHT22;34227;51.840;4.146;2022-09-20T16:09:52;16.20;79.90
48416;DHT22;34227;51.840;4.146;2022-09-20T16:12:19;16.20;79.90
48416;DHT22;34227;51.840;4.146;2022-09-20T16:14:45;16.20;79.90
48416;DHT22;34227;51.840;4.146;2022-09-20T16:17:20;16.10;79.90
48416;DHT22;34227;51.840;4.146;2022-09-20T16:20:05;16.10;80.00
48416;DHT22;34227;51.840;4.146;2022-09-20T16:22:31;16.10;79.90
48416;DHT22;34227;51.840;4.146;2022-09-20T16:24:58;16.10;80.00
48416;DHT22;34227;51.840;4.146;2022-09-20T16:27:28;16.00;80.00
48416;DHT22;34227;51.840;4.146;2022-09-20T16:29:59;16.00;80.10
48416;DHT22;34227;51.840;4.146;2022-09-20T16:32:28;16.00;80.10
48416;DHT22;34227;51.840;4.146;2022-09-20T16:34:54;16.00;80.20
48416;DHT22;34227;51.840;4.146;2022-09-20T16:37:19;16.00;80.40
48416;DHT22;34227;51.840;4.146;2022-09-20T16:39:46;15.90;80.40
48416;DHT22;34227;51.840;4.146;2022-09-20T16:42:15;15.90;80.40
48416;DHT22;34227;51.840;4.146;2022-09-20T16:44:41;15.90;80.40
48416;DHT22;34227;51.840;4.146;2022-09-20T16:47:09;15.90;80.60
48416;DHT22;34227;51.840;4.146;2022-09-20T16:49:35;15.80;80.60
48416;DHT22;34227;51.840;4.146;2022-09-20T16:52:03;15.80;80.70
48416;DHT22;34227;51.840;4.146;2022-09-20T16:54:28;15.80;80.90
48416;DHT22;34227;51.840;4.146;2022-09-20T16:56:54;15.70;80.90
48416;DHT22;34227;51.840;4.146;2022-09-20T16:59:20;15.70;81.00
48416;DHT22;34227;51.840;4.146;2022-09-20T17:01:46;15.70;81.10
48416;DHT22;34227;51.840;4.146;2022-09-20T17:04:24;15.70;81.60
48416;DHT22;34227;51.840;4.146;2022-09-20T17:06:51;15.60;81.30
48416;DHT22;34227;51.840;4.146;2022-09-20T17:15:23;15.50;81.60
48416;DHT22;34227;51.840;4.146;2022-09-20T17:17:48;15.50;81.90
48416;DHT22;34227;51.840;4.146;2022-09-20T17:20:14;15.50;82.10
48416;DHT22;34227;51.840;4.146;2022-09-20T17:22:40;15.40;82.00
48416;DHT22;34227;51.840;4.146;2022-09-20T17:25:08;15.40;82.30
48416;DHT22;34227;51.840;4.146;2022-09-20T17:27:33;15.40;82.40
48416;DHT22;34227;51.840;4.146;2022-09-20T17:30:01;15.40;82.60
48416;DHT22;34227;51.840;4.146;2022-09-20T17:32:28;15.30;82.70
48416;DHT22;34227;51.840;4.146;2022-09-20T17:34:56;15.30;83.00
48416;DHT22;34227;51.840;4.146;2022-09-20T17:37:24;15.20;83.00
48416;DHT22;34227;51.840;4.146;2022-09-20T17:40:05;15.20;83.10
48416;DHT22;34227;51.840;4.146;2022-09-20T17:42:31;15.20;83.30
48416;DHT22;34227;51.840;4.146;2022-09-20T17:44:58;15.10;83.50
48416;DHT22;34227;51.840;4.146;2022-09-20T17:47:26;15.10;83.70
48416;DHT22;34227;51.840;4.146;2022-09-20T17:49:51;15.00;83.50
48416;DHT22;34227;51.840;4.146;2022-09-20T17:52:19;15.00;83.90
48416;DHT22;34227;51.840;4.146;2022-09-20T17:54:44;15.00;84.30
48416;DHT22;34227;51.840;4.146;2022-09-20T17:57:10;15.00;84.50
48416;DHT22;34227;51.840;4.146;2022-09-20T17:59:35;14.90;84.70
48416;DHT22;34227;51.840;4.146;2022-09-20T18:02:01;14.90;84.70
48416;DHT22;34227;51.840;4.146;2022-09-20T18:04:27;14.90;84.90
48416;DHT22;34227;51.840;4.146;2022-09-20T18:06:52;14.80;85.00
48416;DHT22;34227;51.840;4.146;2022-09-20T18:09:19;14.80;85.10
48416;DHT22;34227;51.840;4.146;2022-09-20T18:11:46;14.80;85.10
48416;DHT22;34227;51.840;4.146;2022-09-20T18:14:13;14.70;85.30
48416;DHT22;34227;51.840;4.146;2022-09-20T18:16:39;14.70;85.40
48416;DHT22;34227;51.840;4.146;2022-09-20T18:19:06;14.70;85.60
48416;DHT22;34227;51.840;4.146;2022-09-20T18:21:32;14.60;85.80
48416;DHT22;34227;51.840;4.146;2022-09-20T18:23:59;14.60;86.00
48416;DHT22;34227;51.840;4.146;2022-09-20T18:26:28;14.60;86.20
48416;DHT22;34227;51.840;4.146;2022-09-20T18:28:57;14.50;86.30
48416;DHT22;34227;51.840;4.146;2022-09-20T18:31:24;14.50;86.50
48416;DHT22;34227;51.840;4.146;2022-09-20T18:33:51;14.40;86.20
48416;DHT22;34227;51.840;4.146;2022-09-20T18:36:24;14.40;86.40
48416;DHT22;34227;51.840;4.146;2022-09-20T18:38:50;14.40;86.50
48416;DHT22;34227;51.840;4.146;2022-09-20T18:41:19;14.40;86.50
48416;DHT22;34227;51.840;4.146;2022-09-20T18:43:47;14.30;86.40
48416;DHT22;34227;51.840;4.146;2022-09-20T18:46:12;14.30;86.40
48416;DHT22;34227;51.840;4.146;2022-09-20T18:48:38;14.20;86.40
48416;DHT22;34227;51.840;4.146;2022-09-20T18:51:04;14.20;86.50
48416;DHT22;34227;51.840;4.146;2022-09-20T18:53:31;14.20;86.50
48416;DHT22;34227;51.840;4.146;2022-09-20T18:58:37;14.10;86.60
48416;DHT22;34227;51.840;4.146;2022-09-20T19:01:14;14.10;86.80
48416;DHT22;34227;51.840;4.146;2022-09-20T19:06:19;14.00;87.00
48416;DHT22;34227;51.840;4.146;2022-09-20T19:08:52;14.00;87.00
48416;DHT22;34227;51.840;4.146;2022-09-20T19:11:25;13.90;86.90
48416;DHT22;34227;51.840;4.146;2022-09-20T19:13:54;13.90;87.10
48416;DHT22;34227;51.840;4.146;2022-09-20T19:16:23;13.90;87.10
48416;DHT22;34227;51.840;4.146;2022-09-20T19:18:53;13.80;87.20
48416;DHT22;34227;51.840;4.146;2022-09-20T19:24:05;13.70;87.30
48416;DHT22;34227;51.840;4.146;2022-09-20T19:26:33;13.70;87.30
48416;DHT22;34227;51.840;4.146;2022-09-20T19:29:02;13.70;87.30
48416;DHT22;34227;51.840;4.146;2022-09-20T19:31:29;13.60;87.20
48416;DHT22;34227;51.840;4.146;2022-09-20T19:33:59;13.60;87.40
48416;DHT22;34227;51.840;4.146;2022-09-20T19:39:06;13.60;87.40
48416;DHT22;34227;51.840;4.146;2022-09-20T19:41:52;13.50;87.50
48416;DHT22;34227;51.840;4.146;2022-09-20T19:46:51;13.40;87.60
48416;DHT22;34227;51.840;4.146;2022-09-20T19:49:22;13.40;87.60
48416;DHT22;34227;51.840;4.146;2022-09-20T19:51:52;13.40;87.60
48416;DHT22;34227;51.840;4.146;2022-09-20T19:54:20;13.30;87.70
48416;DHT22;34227;51.840;4.146;2022-09-20T19:56:49;13.30;87.70
48416;DHT22;34227;51.840;4.146;2022-09-20T19:59:17;13.30;87.70
48416;DHT22;34227;51.840;4.146;2022-09-20T20:01:43;13.20;87.70
48416;DHT22;34227;51.840;4.146;2022-09-20T20:04:10;13.20;87.70
48416;DHT22;34227;51.840;4.146;2022-09-20T20:09:26;13.10;87.80
48416;DHT22;34227;51.840;4.146;2022-09-20T20:22:27;13.00;87.90
48416;DHT22;34227;51.840;4.146;2022-09-20T20:24:57;13.00;88.00
48416;DHT22;34227;51.840;4.146;2022-09-20T20:27:23;12.90;88.00
48416;DHT22;34227;51.840;4.146;2022-09-20T20:29:49;12.80;88.10
48416;DHT22;34227;51.840;4.146;2022-09-20T20:32:15;12.80;88.10
48416;DHT22;34227;51.840;4.146;2022-09-20T20:34:40;12.80;88.10
48416;DHT22;34227;51.840;4.146;2022-09-20T20:37:06;12.80;88.20
48416;DHT22;34227;51.840;4.146;2022-09-20T20:39:32;12.80;88.10
48416;DHT22;34227;51.840;4.146;2022-09-20T20:41:58;12.70;88.10
48416;DHT22;34227;51.840;4.146;2022-09-20T20:44:29;12.70;88.20
48416;DHT22;34227;51.840;4.146;2022-09-20T20:46:54;12.70;89.00
48416;DHT22;34227;51.840;4.146;2022-09-20T20:49:20;12.70;88.30
48416;DHT22;34227;51.840;4.146;2022-09-20T20:51:46;12.60;88.20
48416;DHT22;34227;51.840;4.146;2022-09-20T20:54:12;12.60;88.40
48416;DHT22;34227;51.840;4.146;2022-09-20T20:56:38;12.60;88.40
48416;DHT22;34227;51.840;4.146;2022-09-20T20:59:04;12.50;88.40
48416;DHT22;34227;51.840;4.146;2022-09-20T21:01:30;12.50;88.50
48416;DHT22;34227;51.840;4.146;2022-09-20T21:03:57;12.50;88.60
48416;DHT22;34227;51.840;4.146;2022-09-20T21:06:25;12.50;88.60
48416;DHT22;34227;51.840;4.146;2022-09-20T21:08:51;12.40;88.50
48416;DHT22;34227;51.840;4.146;2022-09-20T21:11:18;12.30;88.50
48416;DHT22;34227;51.840;4.146;2022-09-20T21:13:46;12.30;88.60